Time;durP1;ratioP1;P1;durP2;ratioP2;P2;SDS_P1;SDS_P2;PMS_P1;PMS_P2;Temp;Humidity;BMP_temperature;BMP_pressure;BME280_temperature;BME280_humidity;BME280_pressure;Samples;Min_cycle;Max_cycle;Signal;HPM_P1;HPM_P2
2023/10/18 00:01:29;;;;;;;12.98;7.85;;;;;;;13.62;97.64;100183.06;5101565;28;20316;-63
2023/10/18 00:03:57;;;;;;;12.05;8.10;;;;;;;13.55;98.33;100183.91;5101785;28;20185;-64
2023/10/18 00:06:23;;;;;;;11.55;7.38;;;;;;;13.56;98.23;100180.25;5101098;28;20345;-64
2023/10/18 00:08:58;;;;;;;14.95;8.23;;;;;;;13.55;98.39;100182.09;5101812;28;20028;-64
2023/10/18 00:11:25;;;;;;;11.75;8.23;;;;;;;13.61;98.69;100183.25;5100748;28;20036;-64
2023/10/18 00:13:53;;;;;;;10.45;8.35;;;;;;;13.61;98.90;100180.56;5102142;28;20331;-63
2023/10/18 00:16:20;;;;;;;12.20;8.35;;;;;;;13.57;98.53;100173.94;5100408;28;20038;-64
2023/10/18 00:18:45;;;;;;;11.80;8.07;;;;;;;13.52;99.40;100186.88;5100578;28;20216;-64
2023/10/18 00:21:12;;;;;;;11.40;7.80;;;;;;;13.46;100.00;100182.25;5108837;28;20043;-63
2023/10/18 00:23:39;;;;;;;14.20;8.57;;;;;;;13.30;100.00;100152.03;5099995;28;20215;-63
2023/10/18 00:26:06;;;;;;;9.75;7.43;;;;;;;13.42;100.00;100166.63;5102422;28;20201;-64
2023/10/18 00:28:32;;;;;;;15.43;8.15;;;;;;;13.46;100.00;100168.94;5100347;28;20032;-64
2023/10/18 00:31:11;;;;;;;10.02;7.63;;;;;;;13.48;100.00;100165.13;5110181;28;20051;-64
2023/10/18 00:33:38;;;;;;;11.93;7.80;;;;;;;13.40;100.00;100157.16;5100501;28;20028;-63
2023/10/18 00:36:04;;;;;;;11.55;7.72;;;;;;;13.43;100.00;100149.66;5100367;28;20093;-63
2023/10/18 00:38:29;;;;;;;11.20;7.72;;;;;;;13.49;100.00;100145.50;5110114;28;20035;-64
2023/10/18 00:40:56;;;;;;;12.18;8.52;;;;;;;13.56;100.00;100145.66;5106531;28;20316;-64
2023/10/18 00:43:22;;;;;;;12.40;7.68;;;;;;;13.60;100.00;100146.97;5107931;28;20036;-63
2023/10/18 00:45:52;;;;;;;11.10;8.55;;;;;;;13.67;100.00;100140.81;5104579;28;20206;-64
2023/10/18 00:48:20;;;;;;;10.32;7.72;;;;;;;13.70;100.00;100143.13;5104892;28;20047;-64
2023/10/18 00:50:48;;;;;;;9.48;7.07;;;;;;;13.71;98.81;100141.28;5103838;28;20040;-64
2023/10/18 00:53:22;;;;;;;12.40;7.57;;;;;;;13.73;99.38;100140.13;5105093;28;20049;-64
2023/10/18 00:56:05;;;;;;;11.85;8.07;;;;;;;13.74;99.34;100144.44;5103492;28;20040;-64
2023/10/18 00:58:33;;;;;;;11.82;8.48;;;;;;;13.78;98.72;100141.44;5112897;28;20079;-64
2023/10/18 01:01:10;;;;;;;11.65;7.93;;;;;;;13.76;99.08;100143.44;5104256;28;20384;-64
2023/10/18 01:03:49;;;;;;;10.27;8.07;;;;;;;13.77;99.03;100139.78;5113209;28;20039;-64
2023/10/18 01:06:19;;;;;;;11.57;8.27;;;;;;;13.81;99.01;100139.25;5104700;28;20070;-64
2023/10/18 01:08:46;;;;;;;12.45;8.70;;;;;;;13.84;98.17;100138.91;5105388;28;20040;-64
2023/10/18 01:11:12;;;;;;;16.88;8.68;;;;;;;13.81;98.55;100141.91;5104288;28;20092;-64
2023/10/18 01:13:40;;;;;;;12.75;9.40;;;;;;;13.77;98.61;100137.94;5105573;28;20089;-64
2023/10/18 01:16:21;;;;;;;11.93;9.10;;;;;;;13.83;98.65;100134.59;5104540;28;20039;-64
2023/10/18 01:18:48;;;;;;;13.57;9.18;;;;;;;13.82;98.83;100135.59;5104068;28;20325;-64
2023/10/18 01:21:22;;;;;;;13.90;9.35;;;;;;;13.79;98.65;100135.09;5103937;28;20031;-64
2023/10/18 01:23:50;;;;;;;16.95;8.85;;;;;;;13.82;99.05;100140.91;5104908;28;20268;-65
2023/10/18 01:26:17;;;;;;;12.80;9.07;;;;;;;13.81;99.71;100136.59;5103975;28;20404;-64
2023/10/18 01:28:43;;;;;;;13.18;9.57;;;;;;;13.74;100.00;100135.63;5104315;28;20032;-64
2023/10/18 01:31:09;;;;;;;13.77;8.90;;;;;;;13.75;100.00;100139.94;5105688;28;20240;-64
2023/10/18 01:33:48;;;;;;;13.93;9.35;;;;;;;13.71;100.00;100138.63;5112499;28;20036;-64
2023/10/18 01:36:18;;;;;;;14.07;9.57;;;;;;;13.73;100.00;100136.63;5111682;28;20503;-64
2023/10/18 01:38:46;;;;;;;11.88;8.75;;;;;;;13.76;100.00;100136.28;5112897;28;20341;-64
2023/10/18 01:41:29;;;;;;;12.48;9.23;;;;;;;13.76;100.00;100132.78;5103783;28;20040;-65
2023/10/18 01:44:08;;;;;;;14.48;9.18;;;;;;;13.73;100.00;100134.78;5111553;28;20039;-65
2023/10/18 01:46:48;;;;;;;15.75;9.73;;;;;;;13.63;100.00;100131.50;5104543;28;20043;-64
2023/10/18 01:49:19;;;;;;;15.75;10.45;;;;;;;13.52;100.00;100129.19;5103132;28;20032;-64
2023/10/18 01:51:47;;;;;;;14.85;10.68;;;;;;;13.50;100.00;100135.69;5113113;28;20387;-63
2023/10/18 01:54:16;;;;;;;12.45;10.07;;;;;;;13.52;100.00;100136.34;5103874;28;20048;-64
2023/10/18 01:56:43;;;;;;;15.40;9.65;;;;;;;13.50;100.00;100144.50;5104506;28;20320;-64
2023/10/18 01:59:13;;;;;;;14.40;9.60;;;;;;;13.56;100.00;100132.38;5102010;28;20241;-64
2023/10/18 02:01:38;;;;;;;14.77;10.18;;;;;;;13.57;100.00;100142.00;5102162;28;20285;-64
2023/10/18 02:04:10;;;;;;;13.40;9.10;;;;;;;13.46;100.00;100127.22;5111921;28;20058;-64
2023/10/18 02:06:36;;;;;;;15.00;9.73;;;;;;;13.51;100.00;100137.34;5103843;28;20226;-64
2023/10/18 02:09:08;;;;;;;15.45;10.10;;;;;;;13.57;100.00;100140.19;5103342;28;20039;-64
2023/10/18 02:11:35;;;;;;;17.23;9.40;;;;;;;13.52;100.00;100137.16;5102924;28;20031;-64
2023/10/18 02:14:02;;;;;;;12.88;9.65;;;;;;;13.62;100.00;100131.69;5103632;28;20050;-64
2023/10/18 02:16:28;;;;;;;15.15;9.70;;;;;;;13.60;100.00;100131.03;5105712;28;20042;-64
2023/10/18 02:18:54;;;;;;;13.05;9.65;;;;;;;13.58;100.00;100138.34;5108388;28;20036;-64
2023/10/18 02:21:21;;;;;;;14.95;10.07;;;;;;;13.54;100.00;100129.06;5102529;28;20202;-64
2023/10/18 02:23:50;;;;;;;15.27;9.50;;;;;;;13.58;100.00;100131.19;5102932;28;20042;-64
2023/10/18 02:28:54;;;;;;;14.63;9.63;;;;;;;13.55;100.00;100138.69;5103570;28;20032;-64
2023/10/18 02:31:23;;;;;;;14.35;9.82;;;;;;;13.52;100.00;100134.50;5102242;28;20040;-64
2023/10/18 02:33:49;;;;;;;13.93;10.02;;;;;;;13.52;100.00;100139.81;5102020;28;20040;-64
2023/10/18 02:36:21;;;;;;;15.18;10.40;;;;;;;13.55;100.00;100136.03;5103399;28;20047;-64
2023/10/18 02:38:52;;;;;;;13.57;10.05;;;;;;;13.55;100.00;100139.53;5103789;28;20036;-64
2023/10/18 02:41:21;;;;;;;15.98;10.32;;;;;;;13.38;100.00;100138.72;5102540;28;20036;-64
2023/10/18 02:43:48;;;;;;;15.93;10.68;;;;;;;13.40;100.00;100139.38;5102759;28;20291;-64
2023/10/18 02:46:16;;;;;;;15.80;10.48;;;;;;;13.35;100.00;100144.38;5103013;28;20360;-65
2023/10/18 02:48:44;;;;;;;16.15;10.57;;;;;;;13.30;100.00;100143.22;5108318;28;20388;-65
2023/10/18 02:51:13;;;;;;;16.77;10.65;;;;;;;13.39;100.00;100145.69;5103527;28;20032;-65
2023/10/18 02:53:41;;;;;;;18.65;10.52;;;;;;;13.43;100.00;100138.19;5103056;28;20041;-64
2023/10/18 02:56:17;;;;;;;16.88;10.93;;;;;;;13.51;100.00;100137.34;5101167;28;20036;-65
2023/10/18 02:58:46;;;;;;;14.90;10.13;;;;;;;13.36;100.00;100130.06;5102000;28;20535;-65
2023/10/18 03:01:14;;;;;;;14.57;10.18;;;;;;;13.49;100.00;100134.84;5103177;28;20332;-65
2023/10/18 03:03:42;;;;;;;14.40;10.75;;;;;;;13.52;100.00;100129.19;5103308;28;20046;-65
2023/10/18 03:06:16;;;;;;;17.27;11.80;;;;;;;13.53;100.00;100128.22;5102829;28;20070;-65
2023/10/18 03:08:48;;;;;;;16.52;10.98;;;;;;;13.57;100.00;100134.84;5107226;28;20032;-64
2023/10/18 03:11:14;;;;;;;16.27;10.48;;;;;;;13.62;100.00;100137.00;5104462;28;20036;-65
2023/10/18 03:13:39;;;;;;;16.25;10.85;;;;;;;13.60;100.00;100134.50;5102355;28;20364;-64
2023/10/18 03:16:15;;;;;;;15.55;11.13;;;;;;;13.63;100.00;100136.00;5100982;28;20257;-64
2023/10/18 03:18:46;;;;;;;14.27;10.32;;;;;;;13.61;100.00;100138.84;5101717;28;20334;-64
2023/10/18 03:21:21;;;;;;;14.38;10.40;;;;;;;13.56;100.00;100138.53;5100904;28;20047;-65
2023/10/18 03:23:51;;;;;;;16.38;10.77;;;;;;;13.56;100.00;100145.66;5106016;28;20043;-65
2023/10/18 03:26:23;;;;;;;15.52;10.15;;;;;;;13.56;100.00;100137.69;5106796;28;20035;-65
2023/10/18 03:28:52;;;;;;;14.88;10.90;;;;;;;13.53;100.00;100133.53;5102560;28;20103;-64
2023/10/18 03:31:34;;;;;;;14.15;10.00;;;;;;;13.58;100.00;100130.38;5101953;28;20048;-64
2023/10/18 03:34:08;;;;;;;14.90;10.10;;;;;;;13.60;100.00;100131.03;5112072;28;20154;-64
2023/10/18 03:36:34;;;;;;;13.50;10.27;;;;;;;13.65;100.00;100126.00;5101502;28;20058;-64
2023/10/18 03:39:00;;;;;;;19.15;11.00;;;;;;;13.66;100.00;100130.34;5102004;28;20039;-66
2023/10/18 03:41:33;;;;;;;15.43;10.50;;;;;;;13.64;100.00;100122.53;5101673;28;20332;-65
2023/10/18 03:44:08;;;;;;;14.23;9.77;;;;;;;13.68;100.00;100123.84;5101638;28;20317;-65
2023/10/18 03:46:47;;;;;;;13.95;10.77;;;;;;;13.60;100.00;100129.19;5106100;28;20031;-63
2023/10/18 03:49:37;;;;;;;14.77;10.50;;;;;;;13.36;100.00;100131.91;5101854;28;20118;-63
2023/10/18 03:54:44;;;;;;;17.90;11.10;;;;;;;13.53;100.00;100116.75;5101729;28;20039;-63
2023/10/18 03:57:15;;;;;;;16.10;11.18;;;;;;;13.55;100.00;100125.38;5101653;28;20280;-63
2023/10/18 03:59:45;;;;;;;18.15;10.73;;;;;;;13.57;100.00;100118.06;5111888;28;20047;-63
2023/10/18 04:04:49;;;;;;;15.38;10.45;;;;;;;13.64;100.00;100116.38;5101212;28;20047;-63
2023/10/18 04:07:19;;;;;;;15.55;10.93;;;;;;;13.58;100.00;100107.25;5101907;28;20032;-63
2023/10/18 04:09:53;;;;;;;17.83;11.20;;;;;;;13.54;100.00;100121.06;5101684;28;20044;-63
2023/10/18 04:12:19;;;;;;;13.57;10.45;;;;;;;13.63;100.00;100120.03;5101381;28;20031;-63
2023/10/18 04:14:55;;;;;;;17.17;12.10;;;;;;;13.67;100.00;100121.34;5101130;28;20863;-63
2023/10/18 04:17:36;;;;;;;17.30;10.77;;;;;;;13.69;100.00;100117.50;5101789;28;20036;-64
2023/10/18 04:22:48;;;;;;;17.42;10.48;;;;;;;13.61;100.00;100104.25;5110403;28;20042;-63
2023/10/18 04:25:32;;;;;;;14.73;10.73;;;;;;;13.56;100.00;100106.59;5101134;28;20255;-63
2023/10/18 04:27:58;;;;;;;15.13;10.85;;;;;;;13.56;100.00;100109.25;5104011;28;20221;-63
2023/10/18 04:30:31;;;;;;;14.48;10.38;;;;;;;13.58;100.00;100109.09;5109905;28;20043;-62
2023/10/18 04:33:00;;;;;;;15.10;10.80;;;;;;;13.58;100.00;100109.09;5082823;28;20352;-63
2023/10/18 04:35:30;;;;;;;14.27;10.23;;;;;;;13.60;100.00;100105.25;5100689;28;20036;-63
2023/10/18 04:37:56;;;;;;;14.77;11.05;;;;;;;13.63;100.00;100110.22;5108947;28;20350;-63
2023/10/18 04:40:22;;;;;;;17.85;11.55;;;;;;;13.64;100.00;100119.03;5100806;28;20055;-63
2023/10/18 04:42:50;;;;;;;18.20;11.32;;;;;;;13.61;100.00;100114.88;5101174;28;20374;-63
2023/10/18 04:45:16;;;;;;;16.80;11.48;;;;;;;13.53;100.00;100117.56;5102694;28;20054;-63
2023/10/18 04:47:42;;;;;;;20.67;11.90;;;;;;;13.48;100.00;100111.09;5107806;28;20333;-63
2023/10/18 04:50:11;;;;;;;17.60;12.70;;;;;;;13.53;100.00;100128.22;5101277;28;20043;-64
2023/10/18 04:52:40;;;;;;;17.45;12.02;;;;;;;13.39;100.00;100121.75;5110051;28;20044;-64
2023/10/18 04:55:15;;;;;;;19.45;12.43;;;;;;;13.50;100.00;100125.03;5101529;28;20092;-63
2023/10/18 04:57:41;;;;;;;15.48;12.10;;;;;;;13.30;100.00;100133.41;5110435;28;20043;-64
2023/10/18 05:02:58;;;;;;;19.50;13.07;;;;;;;13.46;100.00;100129.03;5070462;28;20345;-64
2023/10/18 05:05:26;;;;;;;17.55;12.48;;;;;;;13.42;100.00;100117.91;5101396;28;20234;-64
2023/10/18 05:07:55;;;;;;;18.85;12.90;;;;;;;13.50;100.00;100120.56;5101798;28;20032;-63
2023/10/18 05:10:21;;;;;;;19.13;12.27;;;;;;;13.53;100.00;100130.88;5099448;28;20036;-64
2023/10/18 05:13:01;;;;;;;17.38;12.82;;;;;;;13.59;100.00;100116.06;5100028;28;20073;-63
2023/10/18 05:15:29;;;;;;;17.00;12.05;;;;;;;13.65;100.00;100121.53;5100056;28;20032;-64
2023/10/18 05:18:04;;;;;;;17.50;11.27;;;;;;;13.62;100.00;100124.53;5100565;28;20036;-64
2023/10/18 05:23:32;;;;;;;19.38;12.50;;;;;;;13.50;100.00;100128.53;5083227;28;20036;-64
2023/10/18 05:26:08;;;;;;;16.60;11.75;;;;;;;13.51;100.00;100134.69;5083134;28;20051;-64
2023/10/18 05:28:47;;;;;;;14.35;10.32;;;;;;;13.53;100.00;100127.38;5103739;28;20051;-64
2023/10/18 05:36:35;;;;;;;22.85;12.50;;;;;;;13.49;100.00;100134.03;5108425;28;20043;-63
2023/10/18 05:39:18;;;;;;;17.45;11.73;;;;;;;13.50;100.00;100146.31;5104293;28;20046;-64
2023/10/18 05:41:50;;;;;;;17.73;12.23;;;;;;;13.46;100.00;100151.16;5104359;28;20032;-63
2023/10/18 05:44:15;;;;;;;17.02;10.80;;;;;;;13.49;100.00;100142.00;5104297;28;21012;-64
2023/10/18 05:46:41;;;;;;;18.27;11.98;;;;;;;13.48;100.00;100150.97;5113036;28;20032;-63
2023/10/18 05:49:14;;;;;;;19.55;11.82;;;;;;;13.58;100.00;100156.97;5104059;28;20036;-63
2023/10/18 05:51:51;;;;;;;18.10;12.07;;;;;;;13.59;100.00;100150.66;5104214;28;20114;-63
2023/10/18 05:54:19;;;;;;;18.50;11.35;;;;;;;13.68;100.00;100154.94;5102947;28;20043;-63
2023/10/18 05:56:49;;;;;;;18.90;11.50;;;;;;;13.49;100.00;100148.16;5102896;28;20036;-63
2023/10/18 06:01:53;;;;;;;18.70;12.02;;;;;;;13.63;100.00;100162.59;5103390;28;20347;-64
2023/10/18 06:04:25;;;;;;;16.00;10.77;;;;;;;13.55;100.00;100175.94;5102823;28;20103;-64
2023/10/18 06:06:58;;;;;;;16.55;11.90;;;;;;;13.50;100.00;100178.25;5103104;28;20023;-63
2023/10/18 06:09:27;;;;;;;15.50;12.15;;;;;;;13.47;100.00;100174.09;5103213;28;20039;-63
2023/10/18 06:11:54;;;;;;;16.27;11.57;;;;;;;13.52;100.00;100171.75;5103626;28;20040;-64
2023/10/18 06:14:20;;;;;;;15.93;11.30;;;;;;;13.47;100.00;100174.09;5103844;28;20060;-63
2023/10/18 06:16:51;;;;;;;12.52;10.98;;;;;;;13.47;100.00;100171.44;5103517;28;20099;-64
2023/10/18 06:19:22;;;;;;;16.02;10.32;;;;;;;13.63;100.00;100171.41;5102765;28;20273;-64
2023/10/18 06:22:08;;;;;;;15.10;11.50;;;;;;;13.47;100.00;100171.44;5103866;28;20402;-64
2023/10/18 06:24:33;;;;;;;15.77;11.77;;;;;;;13.69;100.00;100181.38;5102681;28;20040;-64
2023/10/18 06:26:59;;;;;;;15.48;10.18;;;;;;;13.80;100.00;100172.19;5103287;28;20129;-63
2023/10/18 06:29:25;;;;;;;14.25;9.10;;;;;;;13.91;100.00;100185.13;5102615;28;20107;-64
2023/10/18 06:31:53;;;;;;;13.98;9.93;;;;;;;14.04;100.00;100185.41;5101947;28;20111;-63
2023/10/18 06:34:18;;;;;;;17.13;12.52;;;;;;;14.06;100.00;100196.72;5103021;28;20039;-64
2023/10/18 06:36:52;;;;;;;15.63;10.50;;;;;;;13.93;100.00;100198.25;5102515;28;20039;-64
2023/10/18 06:39:37;;;;;;;11.98;9.05;;;;;;;13.84;100.00;100191.31;5102016;28;20279;-63
2023/10/18 06:42:06;;;;;;;13.55;9.25;;;;;;;13.87;100.00;100191.78;5101756;28;20395;-63
2023/10/18 06:44:33;;;;;;;14.43;9.68;;;;;;;13.88;100.00;100192.63;5102714;28;20225;-64
2023/10/18 06:47:01;;;;;;;12.45;9.45;;;;;;;13.92;100.00;100194.78;5103066;28;20035;-63
2023/10/18 06:49:27;;;;;;;15.82;10.63;;;;;;;14.01;100.00;100196.41;5110464;28;20373;-64
2023/10/18 06:51:52;;;;;;;13.75;10.32;;;;;;;14.05;100.00;100189.72;5104028;28;20462;-64
2023/10/18 06:54:30;;;;;;;13.13;10.82;;;;;;;14.10;100.00;100191.03;5103066;28;20040;-64
2023/10/18 06:56:57;;;;;;;12.38;8.43;;;;;;;14.24;100.00;100187.63;5102639;28;20042;-64
2023/10/18 06:59:27;;;;;;;13.68;10.65;;;;;;;14.30;100.00;100198.41;5101892;27;20120;-64
2023/10/18 07:01:58;;;;;;;13.57;9.88;;;;;;;13.90;100.00;100193.28;5103211;28;20100;-64
2023/10/18 07:04:37;;;;;;;14.07;8.57;;;;;;;14.02;100.00;100197.22;5102176;28;20028;-63
2023/10/18 07:07:13;;;;;;;12.57;9.00;;;;;;;14.12;100.00;100205.84;5103119;28;20051;-64
2023/10/18 07:09:42;;;;;;;13.93;9.68;;;;;;;14.09;100.00;100198.19;5101856;28;20040;-63
2023/10/18 07:12:11;;;;;;;10.18;7.75;;;;;;;14.02;100.00;100200.72;5102412;28;20055;-63
2023/10/18 07:14:40;;;;;;;10.70;7.38;;;;;;;13.95;100.00;100198.91;5103846;28;20062;-64
2023/10/18 07:17:09;;;;;;;12.18;7.82;;;;;;;14.02;100.00;100203.38;5101914;28;20355;-63
2023/10/18 07:19:47;;;;;;;10.95;8.25;;;;;;;13.82;100.00;100203.97;5100162;28;20211;-63
2023/10/18 07:22:19;;;;;;;11.98;8.38;;;;;;;13.89;100.00;100208.44;5108760;28;20023;-63
2023/10/18 07:24:53;;;;;;;11.40;9.30;;;;;;;13.98;100.00;100214.53;5101903;28;20039;-63
2023/10/18 07:27:20;;;;;;;11.35;8.57;;;;;;;14.01;100.00;100188.41;5101135;28;20095;-63
2023/10/18 07:29:49;;;;;;;15.40;11.45;;;;;;;14.18;100.00;100205.13;5101811;28;20361;-64
2023/10/18 07:32:23;;;;;;;13.02;9.95;;;;;;;14.16;100.00;100207.16;5102241;28;20027;-63
2023/10/18 07:34:49;;;;;;;13.32;8.40;;;;;;;14.20;100.00;100213.78;5102291;28;20023;-64
2023/10/18 07:37:19;;;;;;;11.02;8.15;;;;;;;14.33;100.00;100206.06;5101783;28;20303;-63
2023/10/18 07:40:21;;;;;;;10.38;7.95;;;;;;;14.45;100.00;100208.34;5101990;28;20043;-64
2023/10/18 07:42:43;;;;;;;11.18;8.07;;;;;;;14.59;100.00;100210.28;5099969;28;20052;-64
2023/10/18 07:45:14;;;;;;;10.77;8.65;;;;;;;14.69;99.80;100206.38;5108853;28;20032;-64
2023/10/18 07:47:40;;;;;;;10.07;7.40;;;;;;;14.77;99.93;100202.84;5101260;28;20052;-64
2023/10/18 07:52:54;;;;;;;9.45;7.15;;;;;;;14.77;97.89;100218.84;5101103;28;20078;-64
2023/10/18 07:55:23;;;;;;;11.93;7.53;;;;;;;14.83;96.59;100214.63;5101954;28;20224;-64
2023/10/18 07:57:50;;;;;;;9.18;7.63;;;;;;;14.82;97.68;100211.13;5111585;28;20043;-63
2023/10/18 08:00:22;;;;;;;10.60;7.97;;;;;;;14.93;94.29;100204.53;5101556;28;20127;-64
2023/10/18 08:02:49;;;;;;;10.05;7.53;;;;;;;15.10;92.95;100213.25;5101559;28;20099;-64
2023/10/18 08:05:18;;;;;;;9.73;7.38;;;;;;;15.18;92.88;100208.66;5101054;28;20071;-64
2023/10/18 08:07:49;;;;;;;9.10;7.40;;;;;;;15.25;91.06;100206.94;5100728;28;20031;-64
2023/10/18 08:10:19;;;;;;;8.13;7.00;;;;;;;15.33;92.98;100206.03;5101348;28;20328;-64
2023/10/18 08:12:48;;;;;;;13.55;11.85;;;;;;;15.33;93.76;100206.84;5101444;28;20066;-63
2023/10/18 08:15:14;;;;;;;12.55;10.75;;;;;;;15.33;90.48;100212.19;5099996;28;20260;-64
2023/10/18 08:17:43;;;;;;;12.00;9.35;;;;;;;15.36;92.84;100208.34;5100554;28;20089;-64
2023/10/18 08:22:50;;;;;;;12.63;8.85;;;;;;;15.47;90.87;100204.38;5114709;28;20354;-64
2023/10/18 08:28:13;;;;;;;12.95;10.00;;;;;;;15.15;90.13;100211.69;5083154;28;20234;-64
2023/10/18 08:33:25;;;;;;;12.27;9.75;;;;;;;15.04;87.36;100217.47;5049680;28;20052;-64
2023/10/18 08:35:58;;;;;;;11.50;9.32;;;;;;;14.92;87.46;100214.38;5101726;28;20032;-64
2023/10/18 08:38:27;;;;;;;9.48;8.48;;;;;;;14.85;88.26;100209.94;5103042;28;20035;-63
2023/10/18 08:41:11;;;;;;;12.57;9.38;;;;;;;14.96;87.45;100214.84;5108811;28;20107;-64
2023/10/18 08:43:52;;;;;;;11.60;9.65;;;;;;;15.10;87.42;100213.25;5114877;28;20036;-64
2023/10/18 08:46:24;;;;;;;12.25;9.82;;;;;;;15.11;88.75;100217.56;5118661;28;20228;-63
2023/10/18 08:48:53;;;;;;;11.70;9.20;;;;;;;15.10;89.43;100213.25;5113850;28;20043;-64
2023/10/18 08:51:21;;;;;;;13.77;9.95;;;;;;;15.16;88.26;100215.19;5117968;28;20035;-64
2023/10/18 08:53:48;;;;;;;14.23;10.88;;;;;;;15.30;87.65;100212.56;5118315;28;20106;-64
2023/10/18 08:56:14;;;;;;;18.10;12.52;;;;;;;15.35;88.05;100214.69;5117502;28;20137;-64
2023/10/18 08:58:42;;;;;;;13.23;11.32;;;;;;;15.31;88.11;100221.38;5118135;28;20031;-63
2023/10/18 09:01:09;;;;;;;14.27;11.15;;;;;;;15.38;86.71;100222.31;5117479;28;20040;-63
2023/10/18 09:03:35;;;;;;;13.75;11.07;;;;;;;15.42;86.43;100220.13;5120674;28;20333;-64
2023/10/18 09:06:07;;;;;;;12.38;10.27;;;;;;;15.31;85.95;100229.38;5122031;28;20057;-64
2023/10/18 09:08:38;;;;;;;17.63;11.55;;;;;;;15.46;85.69;100230.25;5122011;28;20050;-64
2023/10/18 09:11:09;;;;;;;15.18;12.00;;;;;;;15.51;84.06;100235.88;5121733;28;20108;-65
2023/10/18 09:13:42;;;;;;;13.73;11.15;;;;;;;15.55;86.11;100226.50;5112694;28;20039;-64
2023/10/18 09:16:11;;;;;;;16.20;10.38;;;;;;;15.62;85.63;100226.66;5121986;28;20396;-64
2023/10/18 09:18:37;;;;;;;14.20;10.95;;;;;;;15.67;86.27;100226.94;5121311;28;20043;-64
2023/10/18 09:23:40;;;;;;;12.80;11.25;;;;;;;15.74;87.25;100217.16;5121913;28;20027;-64
2023/10/18 09:26:10;;;;;;;12.10;10.75;;;;;;;15.55;87.41;100223.81;5121350;28;20336;-64
2023/10/18 09:28:37;;;;;;;14.35;11.25;;;;;;;15.52;86.73;100218.00;5121293;28;20031;-64
2023/10/18 09:31:09;;;;;;;14.82;11.35;;;;;;;15.66;84.84;100225.28;5121205;28;20089;-64
2023/10/18 09:33:36;;;;;;;13.50;10.43;;;;;;;15.78;85.71;100226.47;5120818;28;20035;-63
2023/10/18 09:36:02;;;;;;;13.63;10.38;;;;;;;15.84;83.88;100222.22;5121597;28;20551;-64
2023/10/18 09:38:48;;;;;;;12.25;9.75;;;;;;;15.85;82.71;100224.72;5121595;28;20032;-64
2023/10/18 09:41:14;;;;;;;12.25;9.75;;;;;;;15.91;82.55;100220.47;5120495;28;20355;-64
2023/10/18 09:43:39;;;;;;;12.32;10.07;;;;;;;15.95;83.64;100219.09;5121363;28;20024;-64
2023/10/18 09:46:07;;;;;;;14.02;10.13;;;;;;;15.95;83.40;100222.59;5120714;28;20039;-64
2023/10/18 09:48:38;;;;;;;11.82;9.52;;;;;;;16.00;83.91;100222.03;5120371;28;20046;-65
2023/10/18 09:51:07;;;;;;;12.50;10.45;;;;;;;16.00;82.46;100216.69;5121017;28;20105;-64
2023/10/18 09:53:43;;;;;;;16.35;9.32;;;;;;;16.08;81.94;100205.09;5110984;28;20035;-64
2023/10/18 09:56:10;;;;;;;11.88;10.25;;;;;;;16.06;81.67;100210.63;5120262;28;20043;-64
2023/10/18 09:58:42;;;;;;;11.98;10.68;;;;;;;16.12;81.85;100206.38;5120996;28;20038;-64
2023/10/18 10:01:13;;;;;;;14.60;10.85;;;;;;;16.18;83.63;100200.28;5120514;28;20329;-64
2023/10/18 10:04:03;;;;;;;12.00;10.20;;;;;;;16.27;82.60;100208.00;5120390;28;20027;-64
2023/10/18 10:06:29;;;;;;;12.90;10.60;;;;;;;16.33;82.12;100201.06;5119256;28;20225;-64
2023/10/18 10:09:12;;;;;;;12.63;10.60;;;;;;;16.30;82.42;100198.78;5118857;28;20094;-64
2023/10/18 10:11:43;;;;;;;16.00;10.50;;;;;;;15.91;80.03;100202.63;5118685;28;20120;-64
2023/10/18 10:14:10;;;;;;;15.20;11.20;;;;;;;15.77;82.86;100189.28;5118378;28;20401;-64
2023/10/18 10:16:44;;;;;;;17.17;12.25;;;;;;;15.94;80.11;100190.72;5118875;28;20054;-63
2023/10/18 10:19:11;;;;;;;16.70;11.27;;;;;;;16.05;78.53;100192.94;5118356;28;20402;-64
2023/10/18 10:21:37;;;;;;;17.08;11.40;;;;;;;16.04;79.28;100199.28;5118717;28;20814;-64
2023/10/18 10:24:29;;;;;;;16.50;11.70;;;;;;;15.92;83.57;100190.91;5118636;28;20107;-64
2023/10/18 10:26:53;;;;;;;17.23;12.18;;;;;;;16.07;80.99;100200.75;5115465;28;20111;-63
2023/10/18 10:31:58;;;;;;;13.82;9.65;;;;;;;16.31;81.09;100180.91;5119283;28;20313;-64
2023/10/18 10:34:28;;;;;;;10.98;9.05;;;;;;;16.40;80.81;100177.94;5118684;28;20237;-63
2023/10/18 10:37:23;;;;;;;11.98;9.65;;;;;;;16.53;81.01;100187.94;5118565;28;20077;-65
2023/10/18 10:39:51;;;;;;;12.27;9.07;;;;;;;16.60;80.43;100181.63;5115277;28;20031;-64
2023/10/18 10:42:49;;;;;;;10.50;8.95;;;;;;;16.71;80.08;100176.84;5120543;28;20032;-63
2023/10/18 10:53:57;;;;;;;12.75;10.18;;;;;;;16.68;78.96;100166.53;5119986;28;20035;-65
2023/10/18 10:56:23;;;;;;;14.05;10.05;;;;;;;16.67;79.96;100168.38;5118933;28;20073;-65
2023/10/18 11:01:43;;;;;;;15.05;10.75;;;;;;;16.72;78.82;100157.13;5115616;28;20047;-65
2023/10/18 11:04:14;;;;;;;14.65;10.90;;;;;;;16.77;78.18;100158.19;5118567;28;20050;-65
2023/10/18 11:06:44;;;;;;;18.52;13.10;;;;;;;16.71;78.00;100150.13;5119802;28;20046;-66
2023/10/18 11:09:17;;;;;;;17.00;12.25;;;;;;;16.71;77.94;100152.78;5120082;28;20209;-64
2023/10/18 11:11:43;;;;;;;16.42;12.02;;;;;;;16.52;77.01;100151.53;5109285;28;20198;-64
2023/10/18 11:14:13;;;;;;;16.48;11.93;;;;;;;16.34;77.14;100154.63;5102724;28;20194;-65
2023/10/18 11:16:43;;;;;;;15.70;11.02;;;;;;;16.39;77.34;100148.72;5101704;28;20020;-64
2023/10/18 11:19:08;;;;;;;14.27;9.73;;;;;;;16.45;78.72;100137.25;5101594;28;20043;-65
2023/10/18 11:21:34;;;;;;;15.07;10.45;;;;;;;16.53;78.37;100132.63;5107615;28;20032;-64
2023/10/18 11:24:04;;;;;;;13.13;9.30;;;;;;;16.62;76.04;100133.31;5104752;28;20048;-64
2023/10/18 11:26:38;;;;;;;12.55;9.60;;;;;;;16.67;75.07;100124.78;5102017;28;20058;-65
2023/10/18 11:29:05;;;;;;;12.18;9.32;;;;;;;16.77;75.37;100125.28;5103255;28;20372;-64
2023/10/18 11:31:32;;;;;;;11.27;8.40;;;;;;;16.84;77.93;100123.50;5102239;28;20184;-65
2023/10/18 11:34:07;;;;;;;10.70;8.80;;;;;;;16.82;77.22;100120.19;5102568;28;20333;-64
2023/10/18 11:36:38;;;;;;;12.02;8.85;;;;;;;16.91;77.27;100111.00;5102479;28;20081;-64
2023/10/18 11:41:42;;;;;;;12.52;10.20;;;;;;;16.93;75.13;100119.66;5101471;28;20035;-64
2023/10/18 11:44:18;;;;;;;12.75;9.15;;;;;;;17.07;75.71;100116.06;5101207;28;20075;-64
2023/10/18 11:46:47;;;;;;;13.15;9.85;;;;;;;17.09;75.84;100119.38;5101982;28;20035;-64
2023/10/18 11:49:14;;;;;;;12.52;9.95;;;;;;;17.04;76.57;100113.78;5101443;28;20080;-64
2023/10/18 11:51:44;;;;;;;11.30;9.00;;;;;;;17.17;75.64;100121.06;5101050;28;20088;-64
2023/10/18 11:54:12;;;;;;;16.10;9.88;;;;;;;17.22;75.40;100107.91;5101239;28;20138;-64
2023/10/18 11:56:38;;;;;;;12.93;10.32;;;;;;;17.11;76.96;100105.78;5101192;28;20035;-64
2023/10/18 11:59:05;;;;;;;13.38;9.60;;;;;;;17.12;76.12;100105.59;5102543;28;20035;-64
2023/10/18 12:01:34;;;;;;;12.77;9.27;;;;;;;17.14;75.31;100094.69;5102594;28;20043;-65
2023/10/18 12:04:00;;;;;;;11.88;9.32;;;;;;;17.05;75.38;100094.03;5103259;28;20043;-64
2023/10/18 12:06:26;;;;;;;12.90;10.05;;;;;;;16.78;76.15;100094.84;5106625;28;20040;-65
2023/10/18 12:09:25;;;;;;;14.30;9.65;;;;;;;16.76;76.85;100083.50;5105576;28;20028;-64
2023/10/18 12:11:52;;;;;;;12.77;9.25;;;;;;;16.85;76.56;100082.34;5102161;28;20186;-64
2023/10/18 12:14:18;;;;;;;10.73;8.10;;;;;;;16.71;76.45;100078.75;5102392;28;20063;-64
2023/10/18 12:16:44;;;;;;;12.10;8.55;;;;;;;16.63;77.50;100078.00;5102173;28;20407;-65
2023/10/18 12:19:10;;;;;;;12.85;8.40;;;;;;;16.76;76.62;100073.66;5102364;28;20354;-64